sensor_id;sensor_type;location;lat;lon;timestamp;P1;durP1;ratioP1;P2;durP2;ratioP2
33505;SDS011;19843;51.040;13.782;2023-04-25T00:00:57;2.55;;;2.35;;
33505;SDS011;19843;51.040;13.782;2023-04-25T00:03:24;3.08;;;2.88;;
33505;SDS011;19843;51.040;13.782;2023-04-25T00:05:52;2.90;;;2.60;;
33505;SDS011;19843;51.040;13.782;2023-04-25T00:08:22;3.00;;;2.70;;
33505;SDS011;19843;51.040;13.782;2023-04-25T00:10:51;3.38;;;2.80;;
33505;SDS011;19843;51.040;13.782;2023-04-25T00:13:19;3.75;;;2.97;;
33505;SDS011;19843;51.040;13.782;2023-04-25T00:15:48;3.08;;;2.80;;
33505;SDS011;19843;51.040;13.782;2023-04-25T00:18:16;3.22;;;2.78;;
33505;SDS011;19843;51.040;13.782;2023-04-25T00:20:45;3.88;;;3.10;;
33505;SDS011;19843;51.040;13.782;2023-04-25T00:23:12;3.17;;;2.97;;
33505;SDS011;19843;51.040;13.782;2023-04-25T00:25:43;4.88;;;2.90;;
33505;SDS011;19843;51.040;13.782;2023-04-25T00:28:11;3.20;;;2.90;;
33505;SDS011;19843;51.040;13.782;2023-04-25T00:30:39;3.05;;;2.80;;
33505;SDS011;19843;51.040;13.782;2023-04-25T00:33:09;3.22;;;2.78;;
33505;SDS011;19843;51.040;13.782;2023-04-25T00:35:37;3.40;;;3.10;;
33505;SDS011;19843;51.040;13.782;2023-04-25T00:38:04;3.25;;;2.95;;
33505;SDS011;19843;51.040;13.782;2023-04-25T00:40:32;3.58;;;2.95;;
33505;SDS011;19843;51.040;13.782;2023-04-25T00:43:00;3.92;;;3.35;;
33505;SDS011;19843;51.040;13.782;2023-04-25T00:45:28;4.22;;;3.90;;
33505;SDS011;19843;51.040;13.782;2023-04-25T00:47:56;3.58;;;3.25;;
33505;SDS011;19843;51.040;13.782;2023-04-25T00:50:25;3.88;;;3.55;;
33505;SDS011;19843;51.040;13.782;2023-04-25T00:52:53;3.60;;;3.17;;
33505;SDS011;19843;51.040;13.782;2023-04-25T00:55:21;5.15;;;3.50;;
33505;SDS011;19843;51.040;13.782;2023-04-25T00:57:48;4.55;;;3.22;;
33505;SDS011;19843;51.040;13.782;2023-04-25T01:00:16;4.53;;;3.88;;
33505;SDS011;19843;51.040;13.782;2023-04-25T01:02:45;3.42;;;2.92;;
33505;SDS011;19843;51.040;13.782;2023-04-25T01:05:13;3.88;;;3.35;;
33505;SDS011;19843;51.040;13.782;2023-04-25T01:07:42;4.15;;;3.70;;
33505;SDS011;19843;51.040;13.782;2023-04-25T01:10:10;3.53;;;3.22;;
33505;SDS011;19843;51.040;13.782;2023-04-25T01:12:37;6.28;;;3.60;;
33505;SDS011;19843;51.040;13.782;2023-04-25T01:15:05;4.03;;;3.67;;
33505;SDS011;19843;51.040;13.782;2023-04-25T01:17:33;5.30;;;3.80;;
33505;SDS011;19843;51.040;13.782;2023-04-25T01:20:03;6.32;;;4.70;;
33505;SDS011;19843;51.040;13.782;2023-04-25T01:22:33;5.60;;;4.13;;
33505;SDS011;19843;51.040;13.782;2023-04-25T01:25:01;4.70;;;3.88;;
33505;SDS011;19843;51.040;13.782;2023-04-25T01:27:29;5.18;;;4.18;;
33505;SDS011;19843;51.040;13.782;2023-04-25T01:29:57;6.47;;;4.28;;
33505;SDS011;19843;51.040;13.782;2023-04-25T01:32:24;5.90;;;4.07;;
33505;SDS011;19843;51.040;13.782;2023-04-25T01:34:53;5.50;;;4.00;;
33505;SDS011;19843;51.040;13.782;2023-04-25T01:37:20;5.43;;;4.30;;
33505;SDS011;19843;51.040;13.782;2023-04-25T01:39:49;4.32;;;3.58;;
33505;SDS011;19843;51.040;13.782;2023-04-25T01:42:17;4.55;;;4.10;;
33505;SDS011;19843;51.040;13.782;2023-04-25T01:44:44;6.15;;;4.43;;
33505;SDS011;19843;51.040;13.782;2023-04-25T01:47:12;5.70;;;4.07;;
33505;SDS011;19843;51.040;13.782;2023-04-25T01:49:39;4.70;;;3.95;;
33505;SDS011;19843;51.040;13.782;2023-04-25T01:52:07;5.53;;;3.75;;
33505;SDS011;19843;51.040;13.782;2023-04-25T01:54:34;5.03;;;4.28;;
33505;SDS011;19843;51.040;13.782;2023-04-25T01:57:03;7.07;;;4.72;;
33505;SDS011;19843;51.040;13.782;2023-04-25T01:59:30;5.18;;;4.00;;
33505;SDS011;19843;51.040;13.782;2023-04-25T02:01:58;5.15;;;4.30;;
33505;SDS011;19843;51.040;13.782;2023-04-25T02:04:25;4.68;;;4.07;;
33505;SDS011;19843;51.040;13.782;2023-04-25T02:06:53;5.10;;;4.35;;
33505;SDS011;19843;51.040;13.782;2023-04-25T02:09:20;6.65;;;4.47;;
33505;SDS011;19843;51.040;13.782;2023-04-25T02:11:48;4.85;;;4.07;;
33505;SDS011;19843;51.040;13.782;2023-04-25T02:14:17;5.18;;;3.72;;
33505;SDS011;19843;51.040;13.782;2023-04-25T02:16:44;5.88;;;4.25;;
33505;SDS011;19843;51.040;13.782;2023-04-25T02:19:12;5.47;;;4.65;;
33505;SDS011;19843;51.040;13.782;2023-04-25T02:21:40;5.28;;;4.47;;
33505;SDS011;19843;51.040;13.782;2023-04-25T02:24:07;4.60;;;3.85;;
33505;SDS011;19843;51.040;13.782;2023-04-25T02:26:35;6.57;;;4.65;;
33505;SDS011;19843;51.040;13.782;2023-04-25T02:29:02;5.65;;;4.80;;
33505;SDS011;19843;51.040;13.782;2023-04-25T02:31:31;5.20;;;4.65;;
33505;SDS011;19843;51.040;13.782;2023-04-25T02:33:59;6.13;;;4.53;;
33505;SDS011;19843;51.040;13.782;2023-04-25T02:36:26;5.38;;;4.88;;
33505;SDS011;19843;51.040;13.782;2023-04-25T02:38:55;7.95;;;4.75;;
33505;SDS011;19843;51.040;13.782;2023-04-25T02:41:23;6.85;;;4.60;;
33505;SDS011;19843;51.040;13.782;2023-04-25T02:43:50;9.93;;;5.55;;
33505;SDS011;19843;51.040;13.782;2023-04-25T02:46:18;8.15;;;5.30;;
33505;SDS011;19843;51.040;13.782;2023-04-25T02:49:04;9.63;;;5.03;;
33505;SDS011;19843;51.040;13.782;2023-04-25T02:51:32;7.82;;;5.00;;
33505;SDS011;19843;51.040;13.782;2023-04-25T02:53:59;7.10;;;5.13;;
33505;SDS011;19843;51.040;13.782;2023-04-25T02:56:27;6.88;;;4.70;;
33505;SDS011;19843;51.040;13.782;2023-04-25T02:58:54;6.25;;;4.43;;
33505;SDS011;19843;51.040;13.782;2023-04-25T03:01:21;6.57;;;5.07;;
33505;SDS011;19843;51.040;13.782;2023-04-25T03:03:49;7.25;;;4.53;;
33505;SDS011;19843;51.040;13.782;2023-04-25T03:06:18;8.23;;;5.20;;
33505;SDS011;19843;51.040;13.782;2023-04-25T03:08:46;5.50;;;4.47;;
33505;SDS011;19843;51.040;13.782;2023-04-25T03:11:13;6.47;;;4.65;;
33505;SDS011;19843;51.040;13.782;2023-04-25T03:13:40;5.70;;;4.07;;
33505;SDS011;19843;51.040;13.782;2023-04-25T03:16:08;6.00;;;4.60;;
33505;SDS011;19843;51.040;13.782;2023-04-25T03:18:36;6.50;;;4.55;;
33505;SDS011;19843;51.040;13.782;2023-04-25T03:21:03;8.20;;;4.68;;
33505;SDS011;19843;51.040;13.782;2023-04-25T03:23:32;6.95;;;4.85;;
33505;SDS011;19843;51.040;13.782;2023-04-25T03:25:59;6.40;;;4.70;;
33505;SDS011;19843;51.040;13.782;2023-04-25T03:28:27;5.50;;;4.70;;
33505;SDS011;19843;51.040;13.782;2023-04-25T03:30:54;4.65;;;4.20;;
33505;SDS011;19843;51.040;13.782;2023-04-25T03:33:22;6.45;;;5.05;;
33505;SDS011;19843;51.040;13.782;2023-04-25T03:35:49;7.47;;;4.88;;
33505;SDS011;19843;51.040;13.782;2023-04-25T03:38:17;7.35;;;5.18;;
33505;SDS011;19843;51.040;13.782;2023-04-25T03:40:46;5.00;;;4.35;;
33505;SDS011;19843;51.040;13.782;2023-04-25T03:43:13;5.85;;;4.78;;
33505;SDS011;19843;51.040;13.782;2023-04-25T03:45:41;6.57;;;4.80;;
33505;SDS011;19843;51.040;13.782;2023-04-25T03:48:09;5.38;;;4.72;;
33505;SDS011;19843;51.040;13.782;2023-04-25T03:50:36;6.28;;;4.80;;
33505;SDS011;19843;51.040;13.782;2023-04-25T03:53:04;7.65;;;5.30;;
33505;SDS011;19843;51.040;13.782;2023-04-25T03:55:31;7.20;;;5.00;;
33505;SDS011;19843;51.040;13.782;2023-04-25T03:58:00;5.60;;;4.75;;
33505;SDS011;19843;51.040;13.782;2023-04-25T04:00:27;6.43;;;5.50;;
33505;SDS011;19843;51.040;13.782;2023-04-25T04:02:55;6.65;;;5.65;;
33505;SDS011;19843;51.040;13.782;2023-04-25T04:05:22;6.00;;;5.40;;
33505;SDS011;19843;51.040;13.782;2023-04-25T04:07:50;6.40;;;5.22;;
33505;SDS011;19843;51.040;13.782;2023-04-25T04:10:17;7.35;;;6.13;;
33505;SDS011;19843;51.040;13.782;2023-04-25T04:12:45;7.10;;;6.18;;
33505;SDS011;19843;51.040;13.782;2023-04-25T04:15:14;9.13;;;5.85;;
33505;SDS011;19843;51.040;13.782;2023-04-25T04:17:41;6.65;;;5.70;;
33505;SDS011;19843;51.040;13.782;2023-04-25T04:20:09;10.32;;;5.72;;
33505;SDS011;19843;51.040;13.782;2023-04-25T04:22:37;6.40;;;5.80;;
33505;SDS011;19843;51.040;13.782;2023-04-25T04:25:05;10.85;;;5.53;;
33505;SDS011;19843;51.040;13.782;2023-04-25T04:27:33;7.25;;;5.68;;
33505;SDS011;19843;51.040;13.782;2023-04-25T04:30:00;6.75;;;5.85;;
33505;SDS011;19843;51.040;13.782;2023-04-25T04:32:30;9.32;;;6.35;;
33505;SDS011;19843;51.040;13.782;2023-04-25T04:34:58;7.95;;;6.18;;
33505;SDS011;19843;51.040;13.782;2023-04-25T04:37:26;8.48;;;6.45;;
33505;SDS011;19843;51.040;13.782;2023-04-25T04:39:53;6.35;;;5.60;;
33505;SDS011;19843;51.040;13.782;2023-04-25T04:42:21;8.00;;;5.82;;
33505;SDS011;19843;51.040;13.782;2023-04-25T04:44:50;6.80;;;5.55;;
33505;SDS011;19843;51.040;13.782;2023-04-25T04:47:18;7.75;;;6.30;;
33505;SDS011;19843;51.040;13.782;2023-04-25T04:49:47;8.52;;;5.75;;
33505;SDS011;19843;51.040;13.782;2023-04-25T04:52:15;7.00;;;5.75;;
33505;SDS011;19843;51.040;13.782;2023-04-25T04:54:42;7.63;;;5.72;;
33505;SDS011;19843;51.040;13.782;2023-04-25T04:57:10;10.02;;;6.45;;
33505;SDS011;19843;51.040;13.782;2023-04-25T04:59:37;6.10;;;5.22;;
33505;SDS011;19843;51.040;13.782;2023-04-25T05:02:05;8.60;;;5.75;;
33505;SDS011;19843;51.040;13.782;2023-04-25T05:04:32;7.63;;;5.97;;
33505;SDS011;19843;51.040;13.782;2023-04-25T05:07:01;6.97;;;6.28;;
33505;SDS011;19843;51.040;13.782;2023-04-25T05:09:29;7.43;;;6.60;;
33505;SDS011;19843;51.040;13.782;2023-04-25T05:11:56;8.93;;;5.40;;
33505;SDS011;19843;51.040;13.782;2023-04-25T05:14:23;7.60;;;5.93;;
33505;SDS011;19843;51.040;13.782;2023-04-25T05:16:51;8.13;;;5.78;;
33505;SDS011;19843;51.040;13.782;2023-04-25T05:19:18;7.70;;;6.03;;
33505;SDS011;19843;51.040;13.782;2023-04-25T05:21:46;6.50;;;5.57;;
33505;SDS011;19843;51.040;13.782;2023-04-25T05:24:15;9.02;;;6.03;;
33505;SDS011;19843;51.040;13.782;2023-04-25T05:26:42;7.70;;;5.60;;
33505;SDS011;19843;51.040;13.782;2023-04-25T05:29:09;7.03;;;5.82;;
33505;SDS011;19843;51.040;13.782;2023-04-25T05:31:37;8.00;;;5.85;;
33505;SDS011;19843;51.040;13.782;2023-04-25T05:34:04;6.38;;;5.75;;
33505;SDS011;19843;51.040;13.782;2023-04-25T05:36:32;6.72;;;5.53;;
33505;SDS011;19843;51.040;13.782;2023-04-25T05:38:59;10.55;;;5.55;;
33505;SDS011;19843;51.040;13.782;2023-04-25T05:41:28;8.02;;;4.95;;
33505;SDS011;19843;51.040;13.782;2023-04-25T05:43:55;7.70;;;5.20;;
33505;SDS011;19843;51.040;13.782;2023-04-25T05:46:23;7.22;;;5.70;;
33505;SDS011;19843;51.040;13.782;2023-04-25T05:48:51;6.95;;;5.30;;
33505;SDS011;19843;51.040;13.782;2023-04-25T05:51:18;8.20;;;5.20;;
33505;SDS011;19843;51.040;13.782;2023-04-25T05:53:46;7.95;;;5.28;;
33505;SDS011;19843;51.040;13.782;2023-04-25T05:56:13;6.53;;;5.63;;
33505;SDS011;19843;51.040;13.782;2023-04-25T05:58:42;10.00;;;6.13;;
33505;SDS011;19843;51.040;13.782;2023-04-25T06:01:10;8.55;;;5.88;;
33505;SDS011;19843;51.040;13.782;2023-04-25T06:03:37;9.15;;;5.70;;
33505;SDS011;19843;51.040;13.782;2023-04-25T06:06:05;7.20;;;5.75;;
33505;SDS011;19843;51.040;13.782;2023-04-25T06:08:33;9.57;;;5.45;;
33505;SDS011;19843;51.040;13.782;2023-04-25T06:11:00;9.38;;;6.60;;
33505;SDS011;19843;51.040;13.782;2023-04-25T06:13:28;7.30;;;5.93;;
33505;SDS011;19843;51.040;13.782;2023-04-25T06:15:57;10.68;;;6.05;;
33505;SDS011;19843;51.040;13.782;2023-04-25T06:18:24;10.65;;;6.50;;
33505;SDS011;19843;51.040;13.782;2023-04-25T06:20:51;7.13;;;5.80;;
33505;SDS011;19843;51.040;13.782;2023-04-25T06:23:19;12.27;;;7.03;;
33505;SDS011;19843;51.040;13.782;2023-04-25T06:25:46;7.78;;;6.28;;
33505;SDS011;19843;51.040;13.782;2023-04-25T06:28:14;10.88;;;6.85;;
33505;SDS011;19843;51.040;13.782;2023-04-25T06:30:41;10.38;;;5.75;;
33505;SDS011;19843;51.040;13.782;2023-04-25T06:33:10;7.88;;;6.03;;
33505;SDS011;19843;51.040;13.782;2023-04-25T06:35:37;11.30;;;6.35;;
33505;SDS011;19843;51.040;13.782;2023-04-25T06:38:05;7.78;;;5.90;;
33505;SDS011;19843;51.040;13.782;2023-04-25T06:40:32;7.40;;;6.47;;
33505;SDS011;19843;51.040;13.782;2023-04-25T06:42:59;9.40;;;6.20;;
33505;SDS011;19843;51.040;13.782;2023-04-25T06:45:27;8.60;;;6.05;;
33505;SDS011;19843;51.040;13.782;2023-04-25T06:47:54;9.02;;;5.88;;
33505;SDS011;19843;51.040;13.782;2023-04-25T06:50:23;7.50;;;5.95;;
33505;SDS011;19843;51.040;13.782;2023-04-25T06:52:51;8.80;;;6.10;;
33505;SDS011;19843;51.040;13.782;2023-04-25T06:55:18;7.70;;;5.32;;
33505;SDS011;19843;51.040;13.782;2023-04-25T06:57:46;10.05;;;6.57;;
33505;SDS011;19843;51.040;13.782;2023-04-25T07:00:13;9.73;;;6.03;;
33505;SDS011;19843;51.040;13.782;2023-04-25T07:02:41;7.90;;;5.75;;
33505;SDS011;19843;51.040;13.782;2023-04-25T07:05:09;9.38;;;5.85;;
33505;SDS011;19843;51.040;13.782;2023-04-25T07:07:38;12.13;;;5.75;;
33505;SDS011;19843;51.040;13.782;2023-04-25T07:10:06;8.43;;;6.63;;
33505;SDS011;19843;51.040;13.782;2023-04-25T07:12:34;7.65;;;6.05;;
33505;SDS011;19843;51.040;13.782;2023-04-25T07:15:01;8.23;;;5.75;;
33505;SDS011;19843;51.040;13.782;2023-04-25T07:17:32;11.85;;;6.53;;
33505;SDS011;19843;51.040;13.782;2023-04-25T07:20:00;8.93;;;5.53;;
33505;SDS011;19843;51.040;13.782;2023-04-25T07:22:29;10.60;;;5.88;;
33505;SDS011;19843;51.040;13.782;2023-04-25T07:24:58;8.30;;;5.82;;
33505;SDS011;19843;51.040;13.782;2023-04-25T07:27:26;8.40;;;5.57;;
33505;SDS011;19843;51.040;13.782;2023-04-25T07:29:53;6.30;;;4.95;;
33505;SDS011;19843;51.040;13.782;2023-04-25T07:32:21;7.80;;;5.63;;
33505;SDS011;19843;51.040;13.782;2023-04-25T07:34:48;11.18;;;5.95;;
33505;SDS011;19843;51.040;13.782;2023-04-25T07:37:17;7.85;;;5.00;;
33505;SDS011;19843;51.040;13.782;2023-04-25T07:39:45;7.68;;;5.68;;
33505;SDS011;19843;51.040;13.782;2023-04-25T07:42:14;7.13;;;5.75;;
33505;SDS011;19843;51.040;13.782;2023-04-25T07:44:42;5.85;;;4.82;;
33505;SDS011;19843;51.040;13.782;2023-04-25T07:47:09;8.27;;;5.55;;
33505;SDS011;19843;51.040;13.782;2023-04-25T07:49:37;6.00;;;5.30;;
33505;SDS011;19843;51.040;13.782;2023-04-25T07:52:05;6.57;;;5.45;;
33505;SDS011;19843;51.040;13.782;2023-04-25T07:54:32;7.15;;;5.88;;
33505;SDS011;19843;51.040;13.782;2023-04-25T07:57:00;6.70;;;4.93;;
33505;SDS011;19843;51.040;13.782;2023-04-25T07:59:29;4.72;;;4.30;;
33505;SDS011;19843;51.040;13.782;2023-04-25T08:01:57;5.47;;;4.10;;
33505;SDS011;19843;51.040;13.782;2023-04-25T08:04:24;6.25;;;4.10;;
33505;SDS011;19843;51.040;13.782;2023-04-25T08:06:53;4.95;;;3.88;;
33505;SDS011;19843;51.040;13.782;2023-04-25T08:09:20;9.95;;;5.70;;
33505;SDS011;19843;51.040;13.782;2023-04-25T08:11:48;7.35;;;4.57;;
33505;SDS011;19843;51.040;13.782;2023-04-25T08:14:15;5.75;;;3.90;;
33505;SDS011;19843;51.040;13.782;2023-04-25T08:16:44;8.15;;;3.92;;
33505;SDS011;19843;51.040;13.782;2023-04-25T08:19:12;4.60;;;3.80;;
33505;SDS011;19843;51.040;13.782;2023-04-25T08:21:39;5.25;;;4.03;;
33505;SDS011;19843;51.040;13.782;2023-04-25T08:24:07;7.95;;;4.20;;
33505;SDS011;19843;51.040;13.782;2023-04-25T08:26:34;8.60;;;4.72;;
33505;SDS011;19843;51.040;13.782;2023-04-25T08:29:03;4.80;;;4.15;;
33505;SDS011;19843;51.040;13.782;2023-04-25T08:31:31;5.07;;;3.92;;
33505;SDS011;19843;51.040;13.782;2023-04-25T08:34:00;5.03;;;3.75;;
33505;SDS011;19843;51.040;13.782;2023-04-25T08:36:28;4.15;;;3.30;;
33505;SDS011;19843;51.040;13.782;2023-04-25T08:39:05;4.70;;;3.45;;
33505;SDS011;19843;51.040;13.782;2023-04-25T08:41:33;5.13;;;3.58;;
33505;SDS011;19843;51.040;13.782;2023-04-25T08:44:02;4.32;;;2.90;;
33505;SDS011;19843;51.040;13.782;2023-04-25T08:46:30;7.50;;;3.30;;
33505;SDS011;19843;51.040;13.782;2023-04-25T08:49:00;5.10;;;3.38;;
33505;SDS011;19843;51.040;13.782;2023-04-25T08:51:30;4.88;;;3.67;;
33505;SDS011;19843;51.040;13.782;2023-04-25T08:54:01;5.18;;;3.55;;
33505;SDS011;19843;51.040;13.782;2023-04-25T08:56:55;4.60;;;3.83;;
33505;SDS011;19843;51.040;13.782;2023-04-25T08:59:24;5.30;;;3.97;;
33505;SDS011;19843;51.040;13.782;2023-04-25T09:01:51;5.97;;;4.07;;
33505;SDS011;19843;51.040;13.782;2023-04-25T09:04:20;5.40;;;3.80;;
33505;SDS011;19843;51.040;13.782;2023-04-25T09:06:48;6.70;;;4.22;;
33505;SDS011;19843;51.040;13.782;2023-04-25T09:09:15;6.70;;;4.05;;
33505;SDS011;19843;51.040;13.782;2023-04-25T09:11:43;6.40;;;4.38;;
33505;SDS011;19843;51.040;13.782;2023-04-25T09:14:11;5.60;;;4.38;;
33505;SDS011;19843;51.040;13.782;2023-04-25T09:16:58;5.05;;;4.35;;
33505;SDS011;19843;51.040;13.782;2023-04-25T09:19:29;6.15;;;3.95;;
33505;SDS011;19843;51.040;13.782;2023-04-25T09:22:06;6.75;;;4.35;;
33505;SDS011;19843;51.040;13.782;2023-04-25T09:24:34;5.20;;;4.38;;
33505;SDS011;19843;51.040;13.782;2023-04-25T09:27:03;5.47;;;3.90;;
33505;SDS011;19843;51.040;13.782;2023-04-25T09:29:32;8.50;;;5.00;;
33505;SDS011;19843;51.040;13.782;2023-04-25T09:32:10;5.97;;;4.30;;
33505;SDS011;19843;51.040;13.782;2023-04-25T09:34:48;5.82;;;4.53;;
33505;SDS011;19843;51.040;13.782;2023-04-25T09:37:17;6.82;;;4.47;;
33505;SDS011;19843;51.040;13.782;2023-04-25T09:39:46;4.80;;;3.33;;
33505;SDS011;19843;51.040;13.782;2023-04-25T09:42:14;4.85;;;3.47;;
33505;SDS011;19843;51.040;13.782;2023-04-25T09:44:43;5.15;;;4.57;;
33505;SDS011;19843;51.040;13.782;2023-04-25T09:47:12;9.88;;;5.15;;
33505;SDS011;19843;51.040;13.782;2023-04-25T09:49:42;8.23;;;4.93;;
33505;SDS011;19843;51.040;13.782;2023-04-25T09:52:14;5.65;;;4.53;;
33505;SDS011;19843;51.040;13.782;2023-04-25T09:54:43;5.47;;;4.90;;
33505;SDS011;19843;51.040;13.782;2023-04-25T09:57:12;10.50;;;5.55;;
33505;SDS011;19843;51.040;13.782;2023-04-25T09:59:43;7.75;;;5.63;;
33505;SDS011;19843;51.040;13.782;2023-04-25T10:02:12;6.90;;;5.32;;
33505;SDS011;19843;51.040;13.782;2023-04-25T10:04:40;8.40;;;5.47;;
33505;SDS011;19843;51.040;13.782;2023-04-25T10:07:08;10.65;;;6.30;;
33505;SDS011;19843;51.040;13.782;2023-04-25T10:09:38;10.52;;;5.80;;
33505;SDS011;19843;51.040;13.782;2023-04-25T10:12:07;8.55;;;5.93;;
33505;SDS011;19843;51.040;13.782;2023-04-25T10:14:35;8.05;;;5.55;;
33505;SDS011;19843;51.040;13.782;2023-04-25T10:17:02;8.32;;;5.60;;
33505;SDS011;19843;51.040;13.782;2023-04-25T10:19:30;5.45;;;4.78;;
33505;SDS011;19843;51.040;13.782;2023-04-25T10:22:03;7.97;;;4.72;;
33505;SDS011;19843;51.040;13.782;2023-04-25T10:24:35;6.50;;;4.47;;
33505;SDS011;19843;51.040;13.782;2023-04-25T10:27:05;6.57;;;4.53;;
33505;SDS011;19843;51.040;13.782;2023-04-25T10:29:33;6.45;;;4.05;;
33505;SDS011;19843;51.040;13.782;2023-04-25T10:32:02;6.50;;;4.40;;
33505;SDS011;19843;51.040;13.782;2023-04-25T10:34:40;5.60;;;4.22;;
33505;SDS011;19843;51.040;13.782;2023-04-25T10:37:08;7.78;;;4.78;;
33505;SDS011;19843;51.040;13.782;2023-04-25T10:39:39;6.65;;;5.38;;
33505;SDS011;19843;51.040;13.782;2023-04-25T10:42:08;5.85;;;3.95;;
33505;SDS011;19843;51.040;13.782;2023-04-25T10:44:36;5.15;;;4.65;;
33505;SDS011;19843;51.040;13.782;2023-04-25T10:47:06;7.05;;;3.85;;
33505;SDS011;19843;51.040;13.782;2023-04-25T10:49:35;7.05;;;4.40;;
33505;SDS011;19843;51.040;13.782;2023-04-25T10:52:13;5.97;;;3.85;;
33505;SDS011;19843;51.040;13.782;2023-04-25T10:54:51;5.70;;;4.07;;
33505;SDS011;19843;51.040;13.782;2023-04-25T10:57:26;6.38;;;4.32;;
33505;SDS011;19843;51.040;13.782;2023-04-25T10:59:57;5.00;;;4.50;;
33505;SDS011;19843;51.040;13.782;2023-04-25T11:02:27;5.10;;;4.68;;
33505;SDS011;19843;51.040;13.782;2023-04-25T11:04:55;5.78;;;4.75;;
33505;SDS011;19843;51.040;13.782;2023-04-25T11:07:25;8.07;;;5.00;;
33505;SDS011;19843;51.040;13.782;2023-04-25T11:10:02;6.72;;;5.30;;
33505;SDS011;19843;51.040;13.782;2023-04-25T11:12:31;7.07;;;5.47;;
33505;SDS011;19843;51.040;13.782;2023-04-25T11:14:59;9.50;;;6.53;;
33505;SDS011;19843;51.040;13.782;2023-04-25T11:17:28;6.65;;;5.85;;
33505;SDS011;19843;51.040;13.782;2023-04-25T11:19:56;8.18;;;5.80;;
33505;SDS011;19843;51.040;13.782;2023-04-25T11:22:23;7.90;;;5.97;;
33505;SDS011;19843;51.040;13.782;2023-04-25T11:24:51;8.90;;;6.15;;
33505;SDS011;19843;51.040;13.782;2023-04-25T11:27:21;10.30;;;5.75;;
33505;SDS011;19843;51.040;13.782;2023-04-25T11:29:50;8.82;;;4.97;;
33505;SDS011;19843;51.040;13.782;2023-04-25T11:32:18;7.10;;;4.93;;
33505;SDS011;19843;51.040;13.782;2023-04-25T11:34:47;9.90;;;4.75;;
33505;SDS011;19843;51.040;13.782;2023-04-25T11:37:14;7.88;;;4.10;;
33505;SDS011;19843;51.040;13.782;2023-04-25T11:39:42;5.18;;;3.22;;
33505;SDS011;19843;51.040;13.782;2023-04-25T11:42:12;4.57;;;3.67;;
33505;SDS011;19843;51.040;13.782;2023-04-25T11:44:41;4.82;;;3.47;;
33505;SDS011;19843;51.040;13.782;2023-04-25T11:47:08;4.30;;;2.97;;
33505;SDS011;19843;51.040;13.782;2023-04-25T11:49:36;4.85;;;3.28;;
33505;SDS011;19843;51.040;13.782;2023-04-25T11:52:05;5.22;;;2.97;;
33505;SDS011;19843;51.040;13.782;2023-04-25T11:54:35;7.43;;;3.00;;
33505;SDS011;19843;51.040;13.782;2023-04-25T11:57:03;3.05;;;2.70;;
33505;SDS011;19843;51.040;13.782;2023-04-25T11:59:31;6.68;;;2.72;;
33505;SDS011;19843;51.040;13.782;2023-04-25T12:02:00;4.05;;;2.78;;
33505;SDS011;19843;51.040;13.782;2023-04-25T12:04:29;4.70;;;2.70;;
33505;SDS011;19843;51.040;13.782;2023-04-25T12:06:58;4.55;;;2.67;;
33505;SDS011;19843;51.040;13.782;2023-04-25T12:09:28;5.25;;;2.78;;
33505;SDS011;19843;51.040;13.782;2023-04-25T12:11:57;4.80;;;2.85;;
33505;SDS011;19843;51.040;13.782;2023-04-25T12:14:29;9.65;;;3.67;;
33505;SDS011;19843;51.040;13.782;2023-04-25T12:16:58;9.10;;;3.40;;
33505;SDS011;19843;51.040;13.782;2023-04-25T12:19:31;6.00;;;3.00;;
33505;SDS011;19843;51.040;13.782;2023-04-25T12:22:00;5.18;;;2.97;;
33505;SDS011;19843;51.040;13.782;2023-04-25T12:24:29;4.50;;;2.83;;
33505;SDS011;19843;51.040;13.782;2023-04-25T12:26:58;4.80;;;2.65;;
33505;SDS011;19843;51.040;13.782;2023-04-25T12:29:28;9.00;;;3.20;;
33505;SDS011;19843;51.040;13.782;2023-04-25T12:32:14;6.47;;;3.42;;
33505;SDS011;19843;51.040;13.782;2023-04-25T12:34:42;8.13;;;3.42;;
33505;SDS011;19843;51.040;13.782;2023-04-25T12:37:11;10.75;;;3.65;;
33505;SDS011;19843;51.040;13.782;2023-04-25T12:39:38;7.00;;;3.10;;
33505;SDS011;19843;51.040;13.782;2023-04-25T12:42:06;7.38;;;3.88;;
33505;SDS011;19843;51.040;13.782;2023-04-25T12:44:37;10.38;;;4.00;;
33505;SDS011;19843;51.040;13.782;2023-04-25T12:47:05;7.38;;;3.80;;
33505;SDS011;19843;51.040;13.782;2023-04-25T12:49:34;8.13;;;3.90;;
33505;SDS011;19843;51.040;13.782;2023-04-25T12:52:01;9.48;;;3.47;;
33505;SDS011;19843;51.040;13.782;2023-04-25T12:54:29;6.93;;;3.28;;
33505;SDS011;19843;51.040;13.782;2023-04-25T12:56:57;11.85;;;3.95;;
33505;SDS011;19843;51.040;13.782;2023-04-25T12:59:25;9.45;;;3.85;;
33505;SDS011;19843;51.040;13.782;2023-04-25T13:01:52;7.97;;;4.00;;
33505;SDS011;19843;51.040;13.782;2023-04-25T13:04:20;5.93;;;3.47;;
33505;SDS011;19843;51.040;13.782;2023-04-25T13:06:49;8.18;;;3.70;;
33505;SDS011;19843;51.040;13.782;2023-04-25T13:09:16;9.40;;;3.60;;
33505;SDS011;19843;51.040;13.782;2023-04-25T13:11:44;6.85;;;4.28;;
33505;SDS011;19843;51.040;13.782;2023-04-25T13:14:12;11.48;;;4.40;;
33505;SDS011;19843;51.040;13.782;2023-04-25T13:16:39;12.65;;;4.13;;
33505;SDS011;19843;51.040;13.782;2023-04-25T13:19:07;9.75;;;4.15;;
33505;SDS011;19843;51.040;13.782;2023-04-25T13:21:37;9.23;;;4.80;;
33505;SDS011;19843;51.040;13.782;2023-04-25T13:24:06;12.65;;;4.75;;
33505;SDS011;19843;51.040;13.782;2023-04-25T13:26:34;11.52;;;5.18;;
33505;SDS011;19843;51.040;13.782;2023-04-25T13:29:01;10.10;;;4.35;;
33505;SDS011;19843;51.040;13.782;2023-04-25T13:31:30;17.08;;;5.45;;
33505;SDS011;19843;51.040;13.782;2023-04-25T13:33:58;10.50;;;4.80;;
33505;SDS011;19843;51.040;13.782;2023-04-25T13:36:25;12.63;;;5.10;;
33505;SDS011;19843;51.040;13.782;2023-04-25T13:38:53;10.43;;;5.57;;
33505;SDS011;19843;51.040;13.782;2023-04-25T13:41:23;15.07;;;5.07;;
33505;SDS011;19843;51.040;13.782;2023-04-25T13:43:50;10.77;;;4.70;;
33505;SDS011;19843;51.040;13.782;2023-04-25T13:46:18;13.43;;;5.82;;
33505;SDS011;19843;51.040;13.782;2023-04-25T13:49:06;12.95;;;4.65;;
33505;SDS011;19843;51.040;13.782;2023-04-25T13:51:38;10.32;;;3.97;;
33505;SDS011;19843;51.040;13.782;2023-04-25T13:54:05;7.70;;;3.35;;
33505;SDS011;19843;51.040;13.782;2023-04-25T13:56:35;10.80;;;4.05;;
33505;SDS011;19843;51.040;13.782;2023-04-25T13:59:03;10.55;;;4.68;;
33505;SDS011;19843;51.040;13.782;2023-04-25T14:01:30;10.13;;;4.07;;
33505;SDS011;19843;51.040;13.782;2023-04-25T14:04:00;8.20;;;4.30;;
33505;SDS011;19843;51.040;13.782;2023-04-25T14:06:28;9.10;;;4.10;;
33505;SDS011;19843;51.040;13.782;2023-04-25T14:08:55;11.18;;;4.28;;
33505;SDS011;19843;51.040;13.782;2023-04-25T14:11:23;12.00;;;4.65;;
33505;SDS011;19843;51.040;13.782;2023-04-25T14:13:52;12.70;;;4.50;;
33505;SDS011;19843;51.040;13.782;2023-04-25T14:16:20;7.70;;;4.32;;
33505;SDS011;19843;51.040;13.782;2023-04-25T14:18:49;9.48;;;4.07;;
33505;SDS011;19843;51.040;13.782;2023-04-25T14:21:16;10.68;;;4.25;;
33505;SDS011;19843;51.040;13.782;2023-04-25T14:23:44;14.35;;;4.53;;
33505;SDS011;19843;51.040;13.782;2023-04-25T14:26:12;11.95;;;3.80;;
33505;SDS011;19843;51.040;13.782;2023-04-25T14:28:40;9.25;;;3.72;;
33505;SDS011;19843;51.040;13.782;2023-04-25T14:31:09;9.30;;;3.92;;
33505;SDS011;19843;51.040;13.782;2023-04-25T14:33:36;7.57;;;4.47;;
33505;SDS011;19843;51.040;13.782;2023-04-25T14:36:07;10.50;;;3.88;;
33505;SDS011;19843;51.040;13.782;2023-04-25T14:38:35;13.50;;;4.88;;
33505;SDS011;19843;51.040;13.782;2023-04-25T14:41:03;7.72;;;3.95;;